This is the latest recevied weather packets stored in our database for station/object K9ABJ. If no packets are shown the sender has not sent any weather packets the latest 10 day(s).
| Time | Temp. | Humidity | Pressure | Rain* | Wind** | Luminosity | Snow |
|---|---|---|---|---|---|---|---|
| 1787694428 | 25.56° C | 56% | 1017.9 hPa | 0 mm | - | 291 W/m² | - |
| 1787694127 | 26.11° C | 55% | 1018 hPa | 0 mm | - | 179 W/m² | - |
| 1787693823 | 25.56° C | 57% | 1017.9 hPa | 0 mm | - | 214 W/m² | - |
| 1787693519 | 25.56° C | 57% | 1018 hPa | 0 mm | - | 220 W/m² | - |
| 1787693215 | 26.67° C | 53% | 1017.9 hPa | 0 mm | - | 239 W/m² | - |
| 1787692910 | 26.11° C | 56% | 1018 hPa | 0 mm | - | 237 W/m² | - |
| 1787692606 | 26.67° C | 53% | 1018.1 hPa | 0 mm | - | 239 W/m² | - |
| 1787692305 | 26.67° C | 56% | 1017.9 hPa | 0 mm | - | 311 W/m² | - |
| 1787692000 | 28.89° C | 49% | 1018.1 hPa | 0 mm | - | 368 W/m² | - |
| 1787691700 | 27.22° C | 50% | 1018.3 hPa | 0 mm | - | 299 W/m² | - |
| 1787691398 | 26.67° C | 52% | 1018.2 hPa | 0 mm | - | 250 W/m² | - |
| 1787691093 | 26.67° C | 51% | 1018.5 hPa | 0 mm | - | 416 W/m² | - |
| 1787690788 | 27.78° C | 50% | 1018.3 hPa | 0 mm | - | 486 W/m² | - |
| 1787690488 | 25.56° C | 53% | 1018.4 hPa | 0 mm | - | 330 W/m² | - |
| 1787690184 | 25.56° C | 53% | 1018.5 hPa | 0 mm | - | 272 W/m² | - |
| 1787689881 | 26.11° C | 51% | 1018.3 hPa | 0 mm | - | 313 W/m² | - |
| 1787689575 | 28.33° C | 49% | 1018.4 hPa | 0 mm | - | 297 W/m² | - |
| 1787689270 | 27.22° C | 48% | 1018.4 hPa | 0 mm | - | 256 W/m² | - |
| 1787688966 | 27.78° C | 50% | 1018.3 hPa | 0 mm | - | 258 W/m² | - |
| 1787688662 | 26.67° C | 51% | 1018.4 hPa | 0 mm | - | 275 W/m² | - |
| 1787688361 | 25° C | 54% | 1018.3 hPa | 0 mm | - | 646 W/m² | - |
| 1787688056 | 27.22° C | 52% | 1018.4 hPa | 0 mm | - | 935 W/m² | - |
| 1787687752 | 25.56° C | 55% | 1018.3 hPa | 0 mm | - | 957 W/m² | - |
| 1787687452 | 25° C | 57% | 1018.4 hPa | 0 mm | - | 974 W/m² | - |
| 1787687149 | 26.11° C | 55% | 1018.6 hPa | 0 mm | - | 889 W/m² | - |
* Rain latest hour (hover to see other rain measurements)
** Current wind speed in m/s (hover to see current wind gust speed)